Log Lane Village, CO

2:48 PM MDT on August 27, 2016 (GMT -0600)
Fort Morgan

Weather History for KFMM - May, 2014

Change the Weather History Date:

Monday, May 12, 2014

  Actual Average (KAKO) Record (KAKO)
Temperature  
Mean Temperature 38 °F 56 °F  
Max Temperature 45 °F 69 °F 93 °F (1962)
Min Temperature 30 °F 42 °F 22 °F (1953)
Degree Days  
Heating Degree Days 28    
Month to date heating degree days  
Cooling Degree Days 0    
Month to date cooling degree days  
Moisture  
Dew Point 29 °F    
Average Humidity 77    
Maximum Humidity 99    
Minimum Humidity 46    
Precipitation  
Precipitation 0.00 in 0.09 in 2.15 in (1975)
Month to date precipitation 1.01  
Year to date precipitation 4.27  
Sea Level Pressure  
Sea Level Pressure 30.23 in    
Wind  
Wind Speed 17 mph (NNW)    
Max Wind Speed 24 mph    
Max Gust Speed 31 mph    
Visibility 8 miles    
Events Rain , Snow    
T = Trace of Precipitation, MM = Missing Value Source: NWS Daily Summary

Daily Weather History Graph

Daily Weather History Graph

Search for Another Location

Airport or City:

Trip Planner

Search our weather history database for the weather conditions in past years. The results will help you decide how hot, cold, wet, or windy it might be!

Date:

Astronomy

May. 12, 2014 Rise Set
Actual Time 5:41 AM MDT 8:01 PM MDT
Civil Twilight 5:11 AM MDT 8:32 PM MDT
Nautical Twilight 4:33 AM MDT 9:10 PM MDT
Astronomical Twilight 3:52 AM MDT 9:52 PM MDT
Moon 6:01 PM MDT (5/12) 4:22 AM MDT (5/12)
Length of Visible Light 15h 20m
Length of Day
14h 19m
Waxing Gibbous, 95% of the Moon is Illuminated
May 12
Waxing Gibbous
May 14
Full
May 21
Last Quarter
May 28
New
Jun 5
First Quarter

Hourly Weather History & Observations

Time (MDT) Temp. Windchill Dew Point Humidity Pressure Visibility Wind Dir Wind Speed Gust Speed Precip Events Conditions
12:15 AM 34.7 °F 22.5 °F 32.2 °F 91% 30.04 in 10.0 mi North 24.2 mph 31.1 mph N/A   Overcast
12:35 AM 34.7 °F 24.3 °F 32.0 °F 90% 30.07 in 10.0 mi North 17.3 mph 23.0 mph N/A   Overcast
12:55 AM 34.9 °F 24.9 °F 32.0 °F 89% 30.07 in 10.0 mi North 16.1 mph 24.2 mph N/A   Overcast
1:15 AM 34.7 °F 24.0 °F 32.0 °F 90% 30.07 in 10.0 mi North 18.4 mph 24.2 mph N/A Rain Light Rain
1:35 AM 33.8 °F 22.2 °F 31.8 °F 92% 30.06 in 5.0 mi North 20.7 mph 27.6 mph N/A Snow Light Snow
1:55 AM 32.9 °F 23.2 °F 31.6 °F 95% 30.06 in 2.5 mi North 13.8 mph 28.8 mph N/A Snow Light Snow
2:15 AM 32.9 °F 23.2 °F 32.0 °F 96% 30.06 in 5.0 mi North 13.8 mph 20.7 mph N/A Snow Light Snow
2:35 AM 32.9 °F 24.1 °F 32.0 °F 96% 30.08 in 7.0 mi North 11.5 mph - N/A Snow Light Snow
2:55 AM 33.1 °F 25.5 °F 32.0 °F 96% 30.08 in 10.0 mi North 9.2 mph - N/A Rain Light Rain
3:15 AM 32.9 °F 27.5 °F 32.0 °F 96% 30.09 in 5.0 mi NW 5.8 mph - N/A Rain Light Rain
3:35 AM 32.9 °F 26.7 °F 32.0 °F 96% 30.10 in 3.0 mi NW 6.9 mph - N/A Snow Light Snow
3:55 AM 32.5 °F 25.5 °F 32.0 °F 98% 30.11 in 1.8 mi NNW 8.1 mph - N/A Snow Light Snow
4:15 AM 32.2 °F 24.4 °F 32.0 °F 99% 30.11 in 1.5 mi NNW 9.2 mph - N/A Snow Light Snow
4:35 AM 32.2 °F 24.4 °F 31.8 °F 99% 30.11 in 1.5 mi NW 9.2 mph - N/A Snow Light Snow
4:55 AM 32.2 °F 23.8 °F 32.0 °F 99% 30.12 in 1.2 mi NW 10.4 mph - N/A Snow Light Snow
5:15 AM 32.2 °F 20.0 °F 32.0 °F 99% 30.13 in 1.0 mi North 20.7 mph 25.3 mph N/A Snow Snow
5:35 AM 32.0 °F 19.5 °F 31.6 °F 99% 30.15 in 1.0 mi NNW 21.9 mph 27.6 mph N/A Snow Light Snow
5:55 AM 32.0 °F 20.8 °F 31.6 °F 99% 30.16 in 2.0 mi North 17.3 mph 27.6 mph N/A Snow Light Snow
6:15 AM 32.0 °F 19.8 °F 31.1 °F 96% 30.17 in 1.0 mi North 20.7 mph 27.6 mph N/A Snow Light Snow
6:35 AM 32.0 °F 20.1 °F 31.1 °F 96% 30.18 in 1.0 mi NNW 19.6 mph 25.3 mph N/A Snow Light Snow
6:55 AM 32.0 °F 19.2 °F 30.7 °F 95% 30.19 in 1.5 mi North 23.0 mph 31.1 mph N/A Snow Light Snow
7:15 AM 32.0 °F 19.8 °F 30.4 °F 94% 30.20 in 2.5 mi North 20.7 mph 31.1 mph N/A Snow Light Snow
7:35 AM 32.0 °F 19.2 °F 30.2 °F 93% 30.20 in 3.0 mi North 23.0 mph 28.8 mph N/A Snow Light Snow
8:35 AM 32.5 °F 21.5 °F 31.1 °F 94% 30.23 in 4.0 mi North 17.3 mph 20.7 mph N/A   Overcast
8:55 AM 32.9 °F 22.4 °F 30.9 °F 92% 30.24 in 2.5 mi North 16.1 mph - N/A Snow Light Snow
9:15 AM 33.8 °F 24.8 °F 31.1 °F 90% 30.25 in 10.0 mi North 12.7 mph 19.6 mph N/A   Overcast
9:35 AM 34.2 °F 23.6 °F 30.6 °F 87% 30.26 in 7.0 mi North 17.3 mph 23.0 mph N/A   Overcast
9:55 AM 35.4 °F 26.0 °F 30.6 °F 82% 30.26 in 10.0 mi North 15.0 mph - N/A   Overcast
10:15 AM 36.0 °F 26.3 °F 30.2 °F 80% 30.27 in 10.0 mi North 16.1 mph 23.0 mph N/A   Overcast
10:35 AM 37.6 °F 28.1 °F 30.6 °F 76% 30.28 in 10.0 mi North 17.3 mph 24.2 mph N/A   Mostly Cloudy
10:55 AM 37.9 °F 29.6 °F 31.3 °F 77% 30.28 in 10.0 mi NNW 13.8 mph 20.7 mph N/A   Overcast
11:15 AM 38.5 °F 29.2 °F 30.4 °F 73% 30.28 in 10.0 mi NNW 17.3 mph - N/A   Overcast
11:35 AM 39.0 °F 30.3 °F 29.5 °F 69% 30.28 in 10.0 mi NW 16.1 mph 19.6 mph N/A   Overcast
11:55 AM 39.4 °F 31.8 °F 29.3 °F 67% 30.26 in 10.0 mi NNW 12.7 mph 20.7 mph N/A   Overcast
12:15 PM 40.3 °F 31.0 °F 28.6 °F 63% 30.27 in 10.0 mi NNW 19.6 mph - N/A   Overcast
12:35 PM 40.3 °F 32.6 °F 27.5 °F 60% 30.26 in 10.0 mi NNW 13.8 mph - N/A   Overcast
12:55 PM 42.1 °F 33.1 °F 27.3 °F 56% 30.26 in 10.0 mi North 20.7 mph 26.5 mph N/A   Overcast
2:15 PM 43.0 °F 34.8 °F 25.9 °F 51% 30.28 in 10.0 mi North 18.4 mph 25.3 mph N/A   Overcast
2:35 PM 41.9 °F 32.6 °F 24.6 °F 50% 30.28 in 10.0 mi NNW 21.9 mph 26.5 mph N/A   Overcast
2:55 PM 43.3 °F 35.8 °F 26.1 °F 51% 30.28 in 10.0 mi NNW 16.1 mph 24.2 mph N/A   Overcast
3:15 PM 41.9 °F 33.1 °F 26.2 °F 54% 30.28 in 10.0 mi NNW 19.6 mph 26.5 mph N/A   Overcast
3:35 PM 43.5 °F 35.2 °F 27.1 °F 53% 30.28 in 10.0 mi NNW 19.6 mph 24.2 mph N/A   Overcast
3:55 PM 43.0 °F 35.1 °F 25.3 °F 50% 30.28 in 10.0 mi NNW 17.3 mph 26.5 mph N/A   Overcast
4:15 PM 42.6 °F 34.3 °F 25.9 °F 52% 30.28 in 10.0 mi North 18.4 mph 24.2 mph N/A   Overcast
4:35 PM 43.5 °F 35.5 °F 25.2 °F 48% 30.28 in 10.0 mi NNW 18.4 mph 25.3 mph N/A   Overcast
4:55 PM 43.3 °F 35.0 °F 25.2 °F 49% 30.28 in 10.0 mi NNW 19.6 mph 25.3 mph N/A   Overcast
5:15 PM 43.3 °F 34.5 °F 24.6 °F 48% 30.28 in 10.0 mi NNW 21.9 mph 26.5 mph N/A   Overcast
5:35 PM 42.8 °F 34.0 °F 25.0 °F 49% 30.28 in 10.0 mi NNW 20.7 mph - N/A   Overcast
5:55 PM 45.0 °F 36.6 °F 25.3 °F 46% 30.27 in 10.0 mi NNW 21.9 mph 27.6 mph N/A   Overcast
6:15 PM 42.6 °F 33.8 °F 26.1 °F 52% 30.27 in 10.0 mi NNW 20.7 mph 27.6 mph N/A   Mostly Cloudy
6:35 PM 43.3 °F 34.2 °F 25.2 °F 49% 30.26 in 10.0 mi NNW 23.0 mph 27.6 mph N/A   Mostly Cloudy
6:55 PM 41.9 °F 33.1 °F 25.5 °F 52% 30.27 in 10.0 mi NNW 19.6 mph 26.5 mph N/A   Clear
7:15 PM 42.1 °F 33.1 °F 25.0 °F 51% 30.27 in 10.0 mi NNW 20.7 mph 25.3 mph N/A   Clear
7:35 PM 40.6 °F 33.4 °F 26.6 °F 57% 30.28 in 10.0 mi NNW 12.7 mph 19.6 mph N/A   Clear
7:55 PM 39.0 °F 31.0 °F 26.1 °F 60% 30.29 in 10.0 mi NNW 13.8 mph - N/A   Clear
8:35 PM 36.1 °F 29.3 °F 26.2 °F 67% 30.30 in 10.0 mi NNW 9.2 mph - N/A   Clear
9:15 PM 33.1 °F 25.5 °F 26.6 °F 77% 30.32 in 10.0 mi NW 9.2 mph - N/A   Clear
9:35 PM 32.0 °F 25.6 °F 27.0 °F 82% 30.34 in 10.0 mi WNW 6.9 mph - N/A   Clear
9:55 PM 31.1 °F 24.5 °F 27.1 °F 85% 30.36 in 10.0 mi West 6.9 mph - N/A   Clear
10:15 PM 30.4 °F 22.9 °F 27.3 °F 88% 30.37 in 10.0 mi WNW 8.1 mph - N/A   Clear
10:35 PM 31.3 °F 24.7 °F 27.9 °F 87% 30.37 in 10.0 mi WNW 6.9 mph - N/A   Clear
10:55 PM 30.6 °F 23.1 °F 27.3 °F 88% 30.38 in 10.0 mi WNW 8.1 mph - N/A   Clear
11:15 PM 30.9 °F 22.8 °F 27.7 °F 88% 30.38 in 10.0 mi WNW 9.2 mph - N/A   Clear
11:35 PM 30.9 °F 22.8 °F 27.9 °F 88% 30.38 in 10.0 mi WNW 9.2 mph - N/A   Clear